Time;durP1;ratioP1;P1;durP2;ratioP2;P2;SDS_P1;SDS_P2;PMS_P1;PMS_P2;Temp;Humidity;BMP_temperature;BMP_pressure;BME280_temperature;BME280_humidity;BME280_pressure;Samples;Min_cycle;Max_cycle;Signal;HPM_P1;HPM_P2
2022/09/21 00:01:20;;;;;;;5.43;1.20;;;;;;;12.47;59.58;100807.31;5111077;28;20582;-60
2022/09/21 00:03:50;;;;;;;3.40;0.90;;;;;;;12.50;58.95;100806.31;5111166;28;20510;-59
2022/09/21 00:06:18;;;;;;;2.38;1.17;;;;;;;12.49;59.24;100816.00;5111391;28;20108;-60
2022/09/21 00:08:46;;;;;;;2.13;0.85;;;;;;;12.49;59.11;100809.88;5110919;28;20098;-60
2022/09/21 00:11:20;;;;;;;2.70;1.20;;;;;;;12.48;59.08;100814.31;5110784;28;20135;-59
2022/09/21 00:13:50;;;;;;;3.15;1.05;;;;;;;12.48;59.08;100809.03;5111129;28;20047;-60
2022/09/21 00:16:17;;;;;;;2.40;0.90;;;;;;;12.47;58.97;100809.09;5112330;28;20087;-59
2022/09/21 00:18:43;;;;;;;3.05;0.90;;;;;;;12.46;58.97;100817.94;5115103;28;20055;-59
2022/09/21 00:21:13;;;;;;;2.20;0.82;;;;;;;12.45;59.12;100816.25;5114972;28;20079;-58
2022/09/21 00:23:40;;;;;;;1.40;0.95;;;;;;;12.44;59.08;100818.03;5114997;28;20503;-59
2022/09/21 00:26:13;;;;;;;3.60;1.02;;;;;;;12.41;59.81;100812.03;5115164;28;20098;-61
2022/09/21 00:28:41;;;;;;;4.30;1.40;;;;;;;12.42;59.05;100825.19;5114917;28;20100;-58
2022/09/21 00:31:11;;;;;;;3.20;1.33;;;;;;;12.41;59.48;100814.69;5113743;28;20098;-59
2022/09/21 00:33:39;;;;;;;2.42;1.10;;;;;;;12.40;59.43;100819.09;5114884;28;20491;-61
2022/09/21 00:36:09;;;;;;;2.67;1.20;;;;;;;12.40;59.65;100818.25;5114624;28;20073;-59
2022/09/21 00:38:36;;;;;;;3.38;1.38;;;;;;;12.41;59.23;100814.69;5114600;28;20043;-60
2022/09/21 00:41:05;;;;;;;2.20;1.13;;;;;;;12.40;59.54;100818.25;5114850;28;20083;-60
2022/09/21 00:44:27;;;;;;;7.82;1.60;;;;;;;12.35;60.17;100813.19;5114629;28;20097;-59
2022/09/21 00:46:59;;;;;;;2.35;0.82;;;;;;;12.40;59.42;100816.44;5082556;28;20079;-60
2022/09/21 00:49:27;;;;;;;3.25;1.40;;;;;;;12.40;59.41;100816.44;5113483;28;20059;-59
2022/09/21 00:51:55;;;;;;;3.97;1.55;;;;;;;12.39;59.59;100820.03;5114531;28;20056;-58
2022/09/21 00:54:28;;;;;;;2.90;1.30;;;;;;;12.36;60.03;100818.41;5114610;28;20048;-58
2022/09/21 00:56:58;;;;;;;2.13;1.30;;;;;;;12.37;59.34;100822.75;5113521;28;20097;-58
2022/09/21 00:59:25;;;;;;;3.22;1.30;;;;;;;12.37;59.42;100817.47;5114721;28;20039;-59
2022/09/21 01:01:57;;;;;;;3.55;1.63;;;;;;;12.35;59.60;100807.91;5114503;28;20132;-59
2022/09/21 01:04:25;;;;;;;5.43;1.70;;;;;;;12.36;59.47;100820.16;5113222;28;20142;-60
2022/09/21 01:06:52;;;;;;;5.35;1.15;;;;;;;12.34;59.38;100822.88;5114199;28;20130;-61
2022/09/21 01:09:19;;;;;;;2.78;1.00;;;;;;;12.34;59.43;100817.59;5113996;28;20087;-59
2022/09/21 01:12:01;;;;;;;2.28;1.05;;;;;;;12.30;60.00;100816.03;5114112;28;20139;-59
2022/09/21 01:14:43;;;;;;;1.23;0.85;;;;;;;12.30;59.46;100817.84;5114198;28;20518;-60
2022/09/21 01:17:37;;;;;;;3.58;1.00;;;;;;;12.26;59.81;100825.03;5113979;28;20407;-59
2022/09/21 01:20:41;;;;;;;3.47;0.98;;;;;;;12.22;59.74;100819.03;5112904;28;20044;-59
2022/09/21 01:23:20;;;;;;;2.70;0.88;;;;;;;12.19;59.87;100821.81;5113969;28;20087;-58
2022/09/21 01:26:00;;;;;;;5.20;1.40;;;;;;;12.15;60.09;100824.69;5113898;28;20087;-60
2022/09/21 01:28:45;;;;;;;3.70;1.00;;;;;;;12.10;60.36;100825.75;5112339;28;20134;-60
2022/09/21 01:31:20;;;;;;;3.58;1.08;;;;;;;12.11;59.83;100829.22;5114041;28;20095;-59
2022/09/21 01:33:53;;;;;;;1.67;0.90;;;;;;;12.08;60.19;100829.38;5113649;28;20048;-59
2022/09/21 01:36:24;;;;;;;2.05;1.00;;;;;;;12.07;59.85;100828.53;5113736;28;20118;-59
2022/09/21 01:38:57;;;;;;;5.28;1.00;;;;;;;12.05;60.00;100824.22;5112141;28;20100;-59
2022/09/21 01:41:27;;;;;;;2.45;1.00;;;;;;;12.04;59.75;100833.06;5112580;28;20084;-60
2022/09/21 01:44:01;;;;;;;3.03;1.00;;;;;;;12.01;59.63;100826.16;5112396;28;20051;-59
2022/09/21 01:46:31;;;;;;;3.17;1.20;;;;;;;11.99;59.53;100831.50;5112311;28;20083;-59
2022/09/21 01:49:03;;;;;;;3.08;1.00;;;;;;;11.96;59.64;100830.78;5111886;28;20080;-60
2022/09/21 01:51:33;;;;;;;3.33;1.10;;;;;;;11.93;59.60;100831.75;5112526;28;20043;-59
2022/09/21 01:54:23;;;;;;;3.45;1.10;;;;;;;11.88;60.71;100830.28;5113638;28;20113;-60
2022/09/21 01:57:00;;;;;;;3.28;1.20;;;;;;;11.89;60.35;100832.81;5113502;28;20086;-59
2022/09/21 01:59:36;;;;;;;4.03;1.65;;;;;;;11.86;60.47;100827.69;5111733;28;20503;-59
2022/09/21 02:02:34;;;;;;;2.60;1.30;;;;;;;11.83;60.71;100825.19;5111873;28;20086;-60
2022/09/21 02:05:03;;;;;;;3.72;1.20;;;;;;;11.85;60.03;100831.28;5111940;28;20130;-61
2022/09/21 02:07:32;;;;;;;6.28;1.20;;;;;;;11.85;60.24;100826.00;5111765;28;20047;-59
2022/09/21 02:10:01;;;;;;;5.07;1.50;;;;;;;11.85;60.33;100829.47;5111440;28;20051;-59
2022/09/21 02:12:30;;;;;;;3.08;1.48;;;;;;;11.85;60.21;100826.00;5111873;28;20052;-59
2022/09/21 02:14:57;;;;;;;4.20;1.27;;;;;;;11.84;60.34;100822.50;5111743;28;20457;-58
2022/09/21 02:17:49;;;;;;;3.33;1.30;;;;;;;11.81;61.26;100824.41;5113306;28;20051;-59
2022/09/21 02:20:29;;;;;;;2.45;1.02;;;;;;;11.86;60.29;100828.53;5112606;28;20047;-60
2022/09/21 02:23:05;;;;;;;3.42;1.25;;;;;;;11.84;60.66;100827.75;5112810;28;20052;-59
2022/09/21 02:25:44;;;;;;;4.55;1.30;;;;;;;11.83;61.03;100828.69;5112604;28;20438;-60
2022/09/21 02:28:17;;;;;;;3.15;1.20;;;;;;;11.82;60.87;100831.41;5112642;28;20051;-59
2022/09/21 02:30:54;;;;;;;3.40;1.10;;;;;;;11.81;60.92;100827.91;5111198;28;20403;-59
2022/09/21 02:33:40;;;;;;;5.40;1.30;;;;;;;11.78;61.30;100825.38;5111397;28;20047;-59
2022/09/21 02:36:32;;;;;;;4.13;1.35;;;;;;;11.79;61.11;100827.13;5112628;28;20079;-58
2022/09/21 02:39:08;;;;;;;2.00;0.98;;;;;;;11.77;61.05;100822.84;5101115;28;20120;-59
2022/09/21 02:41:56;;;;;;;11.77;1.48;;;;;;;11.78;60.85;100827.19;5111442;28;20055;-60
2022/09/21 02:44:31;;;;;;;2.85;1.25;;;;;;;11.78;60.93;100828.03;5112327;28;20082;-60
2022/09/21 02:47:12;;;;;;;1.92;1.10;;;;;;;11.73;61.13;100817.69;5111303;28;20107;-59
2022/09/21 02:49:44;;;;;;;3.20;1.15;;;;;;;11.74;60.66;100815.94;5110946;28;20051;-59
2022/09/21 02:52:14;;;;;;;5.90;1.30;;;;;;;11.73;60.40;100820.34;5112313;28;20051;-60
2022/09/21 02:54:46;;;;;;;5.10;1.20;;;;;;;11.73;60.49;100822.09;5110937;28;20051;-60
2022/09/21 02:57:16;;;;;;;2.17;0.80;;;;;;;11.71;60.63;100829.25;5112121;28;20162;-61
2022/09/21 02:59:42;;;;;;;3.30;0.85;;;;;;;11.71;60.54;100821.34;5110324;28;20480;-59
2022/09/21 03:02:11;;;;;;;4.28;1.10;;;;;;;11.70;60.61;100819.63;5112061;28;20491;-59
2022/09/21 03:04:40;;;;;;;2.65;0.90;;;;;;;11.68;60.69;100811.78;5111892;28;20102;-59
2022/09/21 03:07:07;;;;;;;1.63;0.90;;;;;;;11.68;60.29;100824.97;5111965;28;20170;-60
2022/09/21 03:09:35;;;;;;;2.28;0.90;;;;;;;11.68;60.41;100818.81;5110459;28;20124;-60
2022/09/21 03:12:01;;;;;;;2.15;0.70;;;;;;;11.66;60.36;100820.69;5111917;28;20086;-59
2022/09/21 03:14:28;;;;;;;3.45;1.00;;;;;;;11.65;60.31;100818.94;5111631;28;20499;-59
2022/09/21 03:16:54;;;;;;;3.22;0.95;;;;;;;11.62;60.33;100825.22;5111111;28;20072;-61
2022/09/21 03:19:21;;;;;;;3.40;0.82;;;;;;;11.61;60.44;100826.16;5111618;28;20495;-61
2022/09/21 03:21:47;;;;;;;4.88;0.90;;;;;;;11.61;60.41;100828.78;5111764;28;20048;-59
2022/09/21 03:24:44;;;;;;;4.63;1.10;;;;;;;11.57;60.37;100833.34;5111568;28;20116;-60
2022/09/21 03:27:00;;;;;;;3.95;1.20;;;;;;;11.57;60.52;100832.47;5111371;28;20457;-59
2022/09/21 03:29:27;;;;;;;2.70;0.70;;;;;;;11.56;60.31;100836.88;5111763;28;20079;-60
2022/09/21 03:31:54;;;;;;;1.75;0.57;;;;;;;11.55;60.36;100836.97;5111442;28;20044;-58
2022/09/21 03:34:21;;;;;;;2.75;1.20;;;;;;;11.53;60.32;100837.03;5111954;28;20044;-60
2022/09/21 03:36:48;;;;;;;3.13;0.68;;;;;;;11.51;60.26;100833.59;5111707;28;20471;-60
2022/09/21 03:39:14;;;;;;;1.85;0.75;;;;;;;11.50;60.06;100837.16;5111260;28;20135;-59
2022/09/21 03:41:41;;;;;;;2.85;0.82;;;;;;;11.47;60.04;100837.28;5111281;28;20094;-59
2022/09/21 03:44:07;;;;;;;3.40;0.90;;;;;;;11.44;59.94;100837.44;5111738;28;20093;-60
2022/09/21 03:46:34;;;;;;;2.90;0.95;;;;;;;11.40;59.80;100835.88;5111476;28;20086;-60
2022/09/21 03:49:01;;;;;;;2.25;0.90;;;;;;;11.36;59.89;100834.28;5111199;28;20138;-59
2022/09/21 03:51:30;;;;;;;2.40;0.60;;;;;;;11.33;60.06;100840.53;5111031;28;20055;-59
2022/09/21 03:53:57;;;;;;;5.65;1.10;;;;;;;11.29;60.29;100839.81;5111058;28;20043;-59
2022/09/21 03:56:23;;;;;;;2.35;0.70;;;;;;;11.27;60.43;100844.28;5111034;28;20129;-59
2022/09/21 03:58:50;;;;;;;1.45;0.60;;;;;;;11.25;60.41;100843.47;5111076;28;20150;-60
2022/09/21 04:01:16;;;;;;;3.65;0.75;;;;;;;11.25;60.37;100840.00;5111140;28;20051;-60
2022/09/21 04:03:43;;;;;;;2.08;0.80;;;;;;;11.23;60.52;100841.84;5111168;28;20043;-58
2022/09/21 04:06:10;;;;;;;7.65;1.67;;;;;;;11.22;61.02;100848.91;5110961;28;20102;-59
2022/09/21 04:08:38;;;;;;;3.58;0.93;;;;;;;11.22;60.94;100848.91;5110737;28;20455;-59
2022/09/21 04:11:16;;;;;;;2.35;0.70;;;;;;;11.20;61.96;100842.84;5111059;28;20170;-59
2022/09/21 04:13:44;;;;;;;2.53;0.70;;;;;;;11.24;61.22;100847.06;5111174;28;20088;-59
2022/09/21 04:16:10;;;;;;;5.10;0.88;;;;;;;11.25;61.16;100843.47;5111001;28;20480;-59
2022/09/21 04:18:37;;;;;;;1.17;0.52;;;;;;;11.25;60.97;100846.13;5110799;28;20048;-59
2022/09/21 04:21:05;;;;;;;0.88;0.60;;;;;;;11.26;61.02;100839.94;5110681;28;20134;-59
2022/09/21 04:23:31;;;;;;;3.28;0.95;;;;;;;11.26;61.00;100842.59;5111122;28;20081;-58
2022/09/21 04:25:58;;;;;;;5.15;0.75;;;;;;;11.26;61.10;100847.84;5111046;28;20079;-59
2022/09/21 04:28:25;;;;;;;4.22;1.00;;;;;;;11.27;61.02;100846.94;5110485;28;20564;-60
2022/09/21 04:30:54;;;;;;;4.82;1.00;;;;;;;11.28;61.15;100853.03;5110883;28;20104;-61
2022/09/21 04:33:22;;;;;;;3.15;0.90;;;;;;;11.28;60.86;100853.91;5110750;28;20091;-59
2022/09/21 04:35:55;;;;;;;3.10;0.88;;;;;;;11.25;61.53;100845.28;5109644;28;20450;-59
2022/09/21 04:38:22;;;;;;;;;;;;;;;11.26;61.15;100847.84;5111286;28;20112;-59
2022/09/21 04:40:58;;;;;;;1.58;0.90;;;;;;;11.24;61.06;100849.69;5110706;28;20010;-58
2022/09/21 04:43:25;;;;;;;2.05;0.65;;;;;;;11.24;60.36;100849.69;5110627;28;20082;-60
2022/09/21 04:45:51;;;;;;;1.20;0.90;;;;;;;11.21;60.36;100857.72;5110817;28;20090;-59
2022/09/21 04:48:18;;;;;;;2.70;1.13;;;;;;;11.17;60.33;100853.50;5110389;28;20044;-59
2022/09/21 04:50:48;;;;;;;4.03;1.15;;;;;;;11.12;60.80;100858.97;5110918;28;20069;-58
2022/09/21 04:53:15;;;;;;;2.95;1.15;;;;;;;11.10;60.66;100852.06;5109412;28;20083;-60
2022/09/21 04:55:44;;;;;;;2.08;1.63;;;;;;;11.06;60.88;100854.81;5110530;28;20451;-60
2022/09/21 04:58:10;;;;;;;3.30;1.23;;;;;;;11.04;60.83;100856.66;5110707;28;20043;-59
2022/09/21 05:00:37;;;;;;;2.15;1.10;;;;;;;11.03;61.00;100865.47;5110395;28;20138;-61
2022/09/21 05:03:03;;;;;;;2.08;1.27;;;;;;;11.01;60.98;100862.06;5114196;28;20051;-59
2022/09/21 05:05:30;;;;;;;4.35;1.35;;;;;;;10.99;61.04;100853.34;5114492;28;20138;-59
2022/09/21 05:07:57;;;;;;;1.95;1.10;;;;;;;10.98;60.91;100856.91;5114302;28;20130;-62
2022/09/21 05:10:24;;;;;;;3.95;1.40;;;;;;;10.96;60.75;100864.03;5114058;28;20051;-59
2022/09/21 05:12:51;;;;;;;6.20;1.38;;;;;;;10.94;60.93;100860.56;5114202;28;20145;-59
2022/09/21 05:15:17;;;;;;;6.25;1.80;;;;;;;10.92;60.88;100871.16;5114607;28;20463;-59
2022/09/21 05:17:45;;;;;;;5.90;2.03;;;;;;;10.91;60.90;100868.59;5114436;28;20128;-59
2022/09/21 05:20:12;;;;;;;3.03;1.60;;;;;;;10.89;61.06;100870.44;5113960;27;20052;-59
2022/09/21 05:22:38;;;;;;;6.72;2.03;;;;;;;10.90;61.16;100869.53;5114275;28;20479;-58
2022/09/21 05:25:06;;;;;;;6.38;2.58;;;;;;;10.88;61.62;100871.38;5114135;28;20078;-59
2022/09/21 05:27:32;;;;;;;4.35;2.10;;;;;;;10.88;61.37;100876.66;5113686;28;20096;-58
2022/09/21 05:29:59;;;;;;;4.70;2.42;;;;;;;10.88;61.54;100876.66;5113585;28;20079;-59
2022/09/21 05:32:30;;;;;;;4.22;2.13;;;;;;;10.86;61.71;100881.09;5113776;28;20043;-59
2022/09/21 05:35:13;;;;;;;7.50;2.38;;;;;;;10.85;62.42;100887.28;5113727;28;20086;-59
2022/09/21 05:37:52;;;;;;;4.95;2.72;;;;;;;10.87;62.38;100880.22;5113693;28;20090;-59
2022/09/21 05:40:19;;;;;;;5.45;2.80;;;;;;;10.89;61.99;100888.88;5112048;28;20104;-60
2022/09/21 05:42:46;;;;;;;3.85;2.67;;;;;;;10.91;62.12;100889.66;5113756;28;20071;-61
2022/09/21 05:45:15;;;;;;;3.50;2.50;;;;;;;10.90;62.25;100891.47;5113572;28;20047;-59
2022/09/21 05:48:09;;;;;;;6.00;2.40;;;;;;;10.89;62.70;100897.66;5112361;28;20071;-59
2022/09/21 05:50:55;;;;;;;7.97;2.70;;;;;;;10.93;62.62;100901.03;5113350;28;20051;-60
2022/09/21 05:53:43;;;;;;;4.57;2.40;;;;;;;10.93;62.63;100901.03;5112269;28;20128;-59
2022/09/21 05:56:21;;;;;;;5.25;2.40;;;;;;;10.96;62.67;100900.91;5112192;28;20691;-60
2022/09/21 05:59:15;;;;;;;3.72;2.30;;;;;;;10.97;62.84;100899.97;5111785;28;20052;-59
2022/09/21 06:02:02;;;;;;;4.88;2.92;;;;;;;11.00;63.15;100910.41;5113259;28;20051;-58
2022/09/21 06:04:29;;;;;;;4.93;2.70;;;;;;;11.05;62.19;100899.66;5113061;28;20046;-60
2022/09/21 06:06:55;;;;;;;5.82;3.92;;;;;;;11.08;62.61;100912.72;5112933;28;20086;-59
2022/09/21 06:09:24;;;;;;;5.93;3.38;;;;;;;11.12;62.84;100910.81;5112618;28;20487;-59
2022/09/21 06:11:51;;;;;;;5.75;3.83;;;;;;;11.16;62.74;100912.41;5113036;28;20058;-60
2022/09/21 06:14:23;;;;;;;7.38;4.05;;;;;;;11.19;62.78;100907.00;5111498;28;20075;-59
2022/09/21 06:16:51;;;;;;;7.45;3.92;;;;;;;11.24;62.97;100912.06;5111967;28;20104;-59
2022/09/21 06:19:17;;;;;;;8.60;3.88;;;;;;;11.27;62.88;100907.56;5112182;28;20077;-59
2022/09/21 06:21:44;;;;;;;5.75;3.90;;;;;;;11.31;63.04;100906.50;5112305;28;20086;-60
2022/09/21 06:24:11;;;;;;;7.72;4.25;;;;;;;11.36;63.02;100911.56;5112125;27;20112;-61
2022/09/21 06:26:37;;;;;;;7.90;3.55;;;;;;;11.39;63.20;100906.19;5112596;28;20087;-59
2022/09/21 06:29:04;;;;;;;4.65;3.80;;;;;;;11.45;63.27;100910.34;5111552;28;20097;-60
2022/09/21 06:31:30;;;;;;;5.00;3.50;;;;;;;11.49;63.19;100913.69;5112521;28;20083;-59
2022/09/21 06:33:57;;;;;;;5.30;3.75;;;;;;;11.54;63.24;100912.59;5112245;28;20472;-60
2022/09/21 06:36:23;;;;;;;9.00;4.38;;;;;;;11.58;63.37;100913.31;5111700;28;20147;-61
2022/09/21 06:38:50;;;;;;;6.20;4.20;;;;;;;11.63;63.20;100914.00;5111453;28;20104;-60
2022/09/21 06:41:17;;;;;;;7.43;3.90;;;;;;;11.68;62.99;100912.00;5112181;28;20082;-61
2022/09/21 06:43:47;;;;;;;8.10;4.05;;;;;;;11.72;63.35;100912.72;5111684;28;20055;-59
2022/09/21 06:46:13;;;;;;;6.85;4.65;;;;;;;11.76;63.54;100919.56;5112437;28;20473;-61
2022/09/21 06:48:40;;;;;;;7.78;4.43;;;;;;;11.81;63.31;100917.59;5111970;28;20052;-59
2022/09/21 06:51:07;;;;;;;11.38;3.85;;;;;;;11.85;63.30;100920.97;5111884;28;20096;-59
2022/09/21 06:53:34;;;;;;;8.25;4.25;;;;;;;11.90;63.48;100915.47;5112399;28;20051;-62
2022/09/21 06:56:06;;;;;;;5.32;3.88;;;;;;;11.92;63.87;100911.84;5112059;28;20044;-58
2022/09/21 06:58:34;;;;;;;6.15;3.75;;;;;;;11.98;63.32;100911.59;5091738;28;20435;-58
2022/09/21 07:01:11;;;;;;;9.07;3.72;;;;;;;12.02;64.01;100921.97;5091601;28;20173;-59
2022/09/21 07:03:39;;;;;;;6.93;3.63;;;;;;;12.09;63.27;100929.63;5091582;28;20488;-60
2022/09/21 07:06:07;;;;;;;5.35;3.53;;;;;;;12.14;63.57;100926.75;5090254;28;20070;-59
2022/09/21 07:08:34;;;;;;;4.82;2.92;;;;;;;12.20;63.25;100925.63;5090105;28;20052;-60
2022/09/21 07:11:22;;;;;;;5.88;3.47;;;;;;;12.25;63.02;100918.34;5091344;28;20051;-59
2022/09/21 07:13:49;;;;;;;6.18;3.10;;;;;;;12.30;63.19;100929.56;5091625;28;20055;-59
2022/09/21 07:16:16;;;;;;;9.18;2.80;;;;;;;12.34;63.07;100923.22;5091306;28;20087;-60
2022/09/21 07:18:42;;;;;;;4.93;2.60;;;;;;;12.40;63.12;100932.63;5091387;28;20101;-60
2022/09/21 07:21:10;;;;;;;4.13;2.65;;;;;;;12.45;63.17;100929.81;5091317;28;20514;-60
2022/09/21 07:23:37;;;;;;;5.43;2.30;;;;;;;12.50;63.02;100930.44;5089984;28;20082;-58
2022/09/21 07:26:06;;;;;;;5.43;2.10;;;;;;;12.54;63.02;100932.00;5090893;28;20083;-59
2022/09/21 07:28:34;;;;;;;8.82;2.58;;;;;;;12.59;62.91;100924.72;5089726;28;20094;-59
2022/09/21 07:31:15;;;;;;;5.10;2.20;;;;;;;12.61;63.50;100928.16;5090931;28;20565;-59
2022/09/21 07:33:45;;;;;;;5.45;2.28;;;;;;;12.70;62.94;100928.63;5091277;28;20052;-59
2022/09/21 07:36:12;;;;;;;6.32;1.88;;;;;;;12.75;62.87;100918.72;5091451;28;20136;-61
2022/09/21 07:38:41;;;;;;;5.82;2.45;;;;;;;12.80;62.87;100924.66;5091446;28;20105;-58
2022/09/21 07:41:11;;;;;;;5.88;2.22;;;;;;;12.84;62.90;100928.84;5089752;28;20488;-60
2022/09/21 07:43:39;;;;;;;5.40;2.03;;;;;;;12.90;62.78;100927.72;5090903;28;20096;-58
2022/09/21 07:46:08;;;;;;;4.28;1.67;;;;;;;12.95;62.77;100933.63;5090903;28;20044;-59
2022/09/21 07:48:35;;;;;;;6.68;2.55;;;;;;;13.00;62.79;100936.91;5089246;28;20113;-59
2022/09/21 07:51:04;;;;;;;4.30;2.10;;;;;;;13.04;62.66;100932.31;5090808;28;20091;-59
2022/09/21 07:53:36;;;;;;;5.60;2.53;;;;;;;13.08;63.09;100939.16;5089388;28;20047;-60
2022/09/21 07:56:04;;;;;;;5.35;2.47;;;;;;;13.15;62.81;100940.59;5089746;28;20140;-59
2022/09/21 08:01:16;;;;;;;9.88;1.95;;;;;;;13.26;62.54;100941.84;5090973;28;20094;-58
2022/09/21 08:03:43;;;;;;;4.88;2.10;;;;;;;13.31;62.54;100931.91;5090573;28;20044;-60
2022/09/21 08:06:10;;;;;;;3.75;2.03;;;;;;;13.36;62.30;100940.47;5090688;28;20043;-59
2022/09/21 08:08:36;;;;;;;5.70;2.00;;;;;;;13.40;62.39;100934.09;5090552;28;20101;-60
2022/09/21 08:11:06;;;;;;;7.18;1.90;;;;;;;13.46;62.84;100938.19;5090948;28;20101;-59
2022/09/21 08:13:33;;;;;;;3.67;2.30;;;;;;;13.50;62.57;100931.84;5089387;28;20125;-60
2022/09/21 08:16:01;;;;;;;5.68;2.10;;;;;;;13.55;62.41;100932.50;5090615;28;20080;-59
2022/09/21 08:18:28;;;;;;;5.13;2.38;;;;;;;13.61;62.44;100931.31;5090310;28;20056;-60
2022/09/21 08:20:59;;;;;;;5.30;2.22;;;;;;;13.65;62.72;100942.59;5090673;28;20116;-59
2022/09/21 08:23:28;;;;;;;5.50;2.10;;;;;;;13.71;62.10;100936.16;5090456;28;20101;-59
2022/09/21 08:26:02;;;;;;;5.22;1.90;;;;;;;13.74;62.35;100942.13;5090638;28;20121;-59
2022/09/21 08:28:30;;;;;;;6.00;1.98;;;;;;;13.82;62.06;100933.78;5089155;28;20102;-59
2022/09/21 08:31:00;;;;;;;6.18;2.30;;;;;;;13.87;61.92;100941.50;5090485;28;20477;-59
2022/09/21 08:33:27;;;;;;;7.00;2.53;;;;;;;13.92;61.70;100945.63;5108290;28;20392;-59
2022/09/21 08:35:58;;;;;;;4.38;2.10;;;;;;;13.98;61.87;100938.28;5111135;28;20055;-59
2022/09/21 08:38:26;;;;;;;7.85;2.30;;;;;;;14.03;61.76;100938.91;5113554;28;20515;-60
2022/09/21 08:40:53;;;;;;;4.70;1.90;;;;;;;14.08;61.42;100936.88;5115127;28;20098;-59
2022/09/21 08:43:35;;;;;;;10.70;1.58;;;;;;;14.10;60.40;100952.66;5115294;28;20097;-60
2022/09/21 08:46:09;;;;;;;10.05;1.88;;;;;;;14.16;60.56;100942.59;5115121;28;20051;-58
2022/09/21 08:48:45;;;;;;;3.60;1.42;;;;;;;14.22;60.64;100943.22;5114409;28;20048;-61
2022/09/21 08:51:20;;;;;;;3.67;1.30;;;;;;;14.27;60.64;100944.69;5114675;27;20056;-59
2022/09/21 08:53:51;;;;;;;5.25;1.73;;;;;;;14.31;60.68;100940.94;5114460;28;20048;-59
2022/09/21 08:56:20;;;;;;;4.43;1.60;;;;;;;14.37;60.85;100946.84;5114484;28;20047;-59
2022/09/21 08:58:47;;;;;;;7.13;1.98;;;;;;;14.42;60.66;100952.72;5114404;28;20043;-59
2022/09/21 09:01:26;;;;;;;4.85;1.83;;;;;;;14.46;60.79;100947.19;5114580;28;20040;-59
2022/09/21 09:03:55;;;;;;;5.78;2.20;;;;;;;14.53;60.79;100950.38;5114320;28;20040;-59
2022/09/21 09:06:26;;;;;;;6.55;2.00;;;;;;;14.57;60.71;100949.25;5113008;28;20063;-59
2022/09/21 09:09:22;;;;;;;6.85;2.28;;;;;;;14.64;60.37;100947.13;5112781;28;20130;-58
2022/09/21 09:12:02;;;;;;;9.57;2.00;;;;;;;14.72;60.37;100944.91;5097877;28;20495;-59
2022/09/21 09:14:55;;;;;;;9.10;1.92;;;;;;;14.79;60.13;100949.91;5113035;28;20488;-58
2022/09/21 09:17:32;;;;;;;6.47;1.85;;;;;;;14.87;60.37;100952.97;5114446;28;20043;-59
2022/09/21 09:20:11;;;;;;;4.43;1.65;;;;;;;14.92;60.01;100958.88;5113998;28;20295;-60
2022/09/21 09:22:49;;;;;;;5.32;2.30;;;;;;;14.96;59.76;100957.75;5114101;28;20083;-61
2022/09/21 09:25:19;;;;;;;4.05;1.80;;;;;;;15.04;60.04;100949.38;5113883;28;20487;-59
2022/09/21 09:27:52;;;;;;;5.90;1.70;;;;;;;15.11;59.97;100955.19;5113909;28;20842;-59
2022/09/21 09:30:23;;;;;;;5.83;2.17;;;;;;;15.17;59.53;100957.47;5113654;28;20087;-58
2022/09/21 09:33:07;;;;;;;4.72;1.67;;;;;;;15.22;59.32;100960.72;5114181;28;20331;-60
2022/09/21 09:35:39;;;;;;;5.03;1.90;;;;;;;15.28;59.28;100954.22;5113961;28;20098;-60
2022/09/21 09:38:26;;;;;;;7.90;1.70;;;;;;;15.29;58.88;100953.25;5112460;28;20063;-60
2022/09/21 09:41:14;;;;;;;7.43;1.90;;;;;;;15.35;58.73;100960.88;5113957;28;20063;-61
2022/09/21 09:43:54;;;;;;;10.48;1.90;;;;;;;15.40;58.57;100959.75;5113696;28;20535;-60
2022/09/21 09:46:31;;;;;;;6.25;1.70;;;;;;;15.46;58.55;100964.69;5112214;28;20039;-59
2022/09/21 09:49:11;;;;;;;6.30;1.90;;;;;;;15.49;57.54;100962.75;5113188;28;20135;-60
2022/09/21 09:51:39;;;;;;;3.58;1.80;;;;;;;15.57;57.97;100961.41;5113404;28;20461;-59
2022/09/21 09:54:13;;;;;;;7.45;1.55;;;;;;;15.57;57.01;100964.06;5113290;28;20043;-60
2022/09/21 09:56:40;;;;;;;4.93;1.95;;;;;;;15.62;58.05;100960.22;5113852;28;20108;-61
2022/09/21 09:59:17;;;;;;;4.68;1.92;;;;;;;15.66;57.38;100960.88;5113063;28;20128;-60
2022/09/21 10:01:46;;;;;;;5.35;1.88;;;;;;;15.76;58.45;100962.06;5113548;28;20055;-60
2022/09/21 10:04:16;;;;;;;5.40;1.70;;;;;;;15.89;58.69;100961.31;5113097;28;20134;-60
2022/09/21 10:06:43;;;;;;;4.85;1.65;;;;;;;16.03;58.21;100960.50;5113201;28;20419;-59
2022/09/21 10:09:32;;;;;;;4.50;1.77;;;;;;;16.15;57.03;100956.25;5112829;28;20047;-60
2022/09/21 10:12:03;;;;;;;5.55;1.45;;;;;;;16.32;58.02;100954.34;5113189;28;20081;-61
2022/09/21 10:14:35;;;;;;;4.05;1.63;;;;;;;16.49;58.41;100955.97;5113120;28;20096;-59
2022/09/21 10:17:07;;;;;;;5.22;1.70;;;;;;;16.66;60.13;100965.50;5113060;28;20048;-67
2022/09/21 10:19:34;;;;;;;5.30;2.15;;;;;;;16.89;59.29;100957.84;5112451;27;20052;-59
2022/09/21 10:22:03;;;;;;;5.22;1.73;;;;;;;17.08;58.27;100951.41;5112729;28;20086;-59
2022/09/21 10:24:34;;;;;;;3.45;1.85;;;;;;;17.27;57.58;100951.88;5111591;28;20097;-60
2022/09/21 10:27:14;;;;;;;5.88;1.80;;;;;;;17.41;56.91;100950.09;5112656;28;20055;-61
2022/09/21 10:29:44;;;;;;;6.78;1.90;;;;;;;17.60;56.52;100955.03;5111009;28;20344;-61
2022/09/21 10:32:11;;;;;;;5.25;1.88;;;;;;;17.77;56.49;100955.72;5111100;28;20082;-62
2022/09/21 10:34:58;;;;;;;5.30;1.85;;;;;;;17.88;55.41;100952.31;5112879;28;20167;-60
2022/09/21 10:37:41;;;;;;;4.45;1.80;;;;;;;17.98;55.12;100954.22;5111409;28;20124;-60
2022/09/21 10:40:20;;;;;;;2.65;1.20;;;;;;;18.02;54.96;100954.03;5112428;28;20090;-60
2022/09/21 10:42:49;;;;;;;7.00;1.45;;;;;;;18.13;55.10;100950.66;5112537;28;20094;-60
2022/09/21 10:45:24;;;;;;;7.00;1.60;;;;;;;18.23;55.64;100947.22;5111479;28;20102;-59
2022/09/21 10:48:07;;;;;;;8.13;1.60;;;;;;;18.37;54.22;100940.06;5103884;28;20119;-60
2022/09/21 10:50:40;;;;;;;4.55;1.63;;;;;;;18.55;55.72;100942.38;5109328;28;20044;-58
2022/09/21 10:53:09;;;;;;;3.65;1.67;;;;;;;18.73;56.31;100941.03;5120652;27;20047;-60
2022/09/21 10:55:42;;;;;;;4.15;1.35;;;;;;;18.95;55.14;100938.63;5112118;28;20047;-59
2022/09/21 10:58:31;;;;;;;3.92;1.35;;;;;;;19.21;56.35;100946.53;5110818;28;20154;-60
2022/09/21 11:01:19;;;;;;;2.83;1.30;;;;;;;19.41;54.18;100937.03;5110183;28;20083;-60
2022/09/21 11:04:07;;;;;;;5.22;1.50;;;;;;;19.71;54.75;100941.00;5110927;28;20052;-60
2022/09/21 11:06:42;;;;;;;4.43;1.77;;;;;;;20.08;54.37;100941.78;5111721;28;20070;-60
2022/09/21 11:09:11;;;;;;;3.33;1.30;;;;;;;20.52;56.28;100939.25;5111245;28;20100;-60
2022/09/21 11:12:06;;;;;;;4.70;1.52;;;;;;;21.07;50.81;100935.72;5111327;28;20363;-60
2022/09/21 11:14:35;;;;;;;3.58;1.27;;;;;;;21.81;54.95;100939.38;5111016;28;20055;-60
2022/09/21 11:17:18;;;;;;;3.50;1.20;;;;;;;22.57;51.78;100931.13;5111614;27;20104;-60
2022/09/21 11:19:56;;;;;;;;;;;;;;;23.30;55.51;100930.75;5110188;28;20480;-60
2022/09/21 11:22:39;;;;;;;3.00;1.45;;;;;;;24.23;52.85;100925.78;5111463;28;19967;-59
2022/09/21 11:25:24;;;;;;;3.35;1.25;;;;;;;25.10;49.12;100916.44;5110090;28;20048;-60
2022/09/21 11:28:01;;;;;;;3.72;1.17;;;;;;;25.85;47.69;100925.94;5110937;28;20075;-60
2022/09/21 11:30:43;;;;;;;3.53;1.00;;;;;;;26.54;44.57;100914.28;5109730;28;20047;-60
2022/09/21 11:33:30;;;;;;;2.25;1.10;;;;;;;27.21;44.99;100910.84;5111552;28;20127;-60
2022/09/21 11:36:16;;;;;;;3.53;1.20;;;;;;;27.78;42.62;100919.91;5111093;28;20052;-60
2022/09/21 11:38:52;;;;;;;2.50;0.93;;;;;;;28.32;41.20;100907.56;5109439;28;20051;-60
2022/09/21 11:41:58;;;;;;;1.65;0.75;;;;;;;28.86;43.81;100908.59;5111184;28;20503;-61
2022/09/21 11:44:24;;;;;;;2.20;0.82;;;;;;;29.35;40.90;100903.81;5031234;28;20060;-62
2022/09/21 11:47:16;;;;;;;2.35;0.88;;;;;;;29.75;40.38;100909.88;5047773;28;20088;-61
2022/09/21 11:50:03;;;;;;;5.10;0.90;;;;;;;30.14;38.56;100907.06;5088297;28;20126;-60
2022/09/21 11:52:50;;;;;;;2.42;0.90;;;;;;;30.52;38.65;100909.63;5111064;28;20062;-60
2022/09/21 11:55:35;;;;;;;4.22;1.13;;;;;;;30.69;38.33;100901.22;5109060;28;20048;-63